createdAt,value
2019-05-17T00:03:42.151Z,1001.07
2019-05-17T00:04:32.002Z,1001.07
2019-05-17T00:05:26.456Z,1001.14
2019-05-17T00:06:17.185Z,1001.1
2019-05-17T00:07:09.629Z,1001.06
2019-05-17T00:08:02.711Z,1001.06
2019-05-17T00:08:52.531Z,1001.07
2019-05-17T00:16:40.641Z,1001.03
2019-05-17T00:17:32.243Z,1000.99
2019-05-17T00:18:26.692Z,1000.96
2019-05-17T00:19:21.367Z,1000.93
2019-05-17T00:20:17.248Z,1000.91
2019-05-17T00:21:09.780Z,1000.89
2019-05-17T00:23:57.073Z,1000.81
2019-05-17T00:24:38.166Z,1000.82
2019-05-17T00:25:27.337Z,1000.8
2019-05-17T00:26:07.451Z,1000.82
2019-05-17T00:26:49.606Z,1000.78
2019-05-17T00:27:32.020Z,1000.75
2019-05-17T00:28:12.540Z,1000.75
2019-05-17T00:28:56.227Z,1000.7
2019-05-17T00:36:10.611Z,1000.66
2019-05-17T00:36:52.883Z,1000.64
2019-05-17T00:37:33.298Z,1000.64
2019-05-17T00:38:16.863Z,1000.64
2019-05-17T00:50:27.470Z,1000.46
2019-05-17T00:51:17.365Z,1000.48
2019-05-17T00:52:07.403Z,1000.44
2019-05-17T00:53:02.902Z,1000.44
2019-05-17T00:54:00.036Z,1000.42
2019-05-17T01:10:56.566Z,1000.23
2019-05-17T01:11:36.557Z,1000.25
2019-05-17T01:12:20.711Z,1000.28
2019-05-17T01:13:01.476Z,1000.25
2019-05-17T01:13:46.649Z,1000.24
2019-05-17T01:14:26.690Z,1000.25
2019-05-17T01:15:10.006Z,1000.23
2019-05-17T01:15:50.407Z,1000.22
2019-05-17T01:16:33.178Z,1000.24
2019-05-17T01:17:13.539Z,1000.24
2019-05-17T01:17:56.169Z,1000.19
2019-05-17T01:18:36.158Z,1000.21
2019-05-17T01:19:16.354Z,1000.19
2019-05-17T01:19:57.330Z,1000.22
2019-05-17T01:20:41.162Z,1000.21
2019-05-17T01:21:21.283Z,1000.17
2019-05-17T01:22:02.952Z,1000.2
2019-05-17T01:22:47.198Z,1000.16
2019-05-17T01:23:27.086Z,1000.16
2019-05-17T01:24:08.263Z,1000.2
2019-05-17T01:24:48.627Z,1000.14
2019-05-17T01:26:13.878Z,1000.15
2019-05-17T01:26:53.380Z,1000.15
2019-05-17T01:27:33.946Z,1000.12
2019-05-17T01:28:57.173Z,1000.14
2019-05-17T01:29:36.291Z,1000.14
2019-05-17T01:30:17.427Z,1000.11
2019-05-17T01:30:56.950Z,1000.09
2019-05-17T01:31:37.277Z,1000.09
2019-05-17T01:32:17.713Z,1000.11
2019-05-17T01:32:57.826Z,1000.07
2019-05-17T01:33:38.284Z,1000.08
2019-05-17T01:34:19.494Z,1000.07
2019-05-17T01:34:59.914Z,1000.03
2019-05-17T01:35:40.402Z,1000.07
2019-05-17T01:36:20.729Z,1000.03
2019-05-17T01:37:01.128Z,999.98
2019-05-17T01:37:42.773Z,1000.01
2019-05-17T01:38:29.267Z,999.99
2019-05-17T01:39:17.162Z,1000
2019-05-17T01:43:01.007Z,999.96
2019-05-17T01:45:37.506Z,999.92
2019-05-17T01:53:07.310Z,999.91
2019-05-17T01:53:48.649Z,999.93
2019-05-17T01:54:31.818Z,999.91
2019-05-17T01:55:14.355Z,999.9
2019-05-17T01:56:00.416Z,999.94
2019-05-17T01:56:40.791Z,999.92
2019-05-17T01:57:21.435Z,999.92
2019-05-17T01:58:01.557Z,999.9
2019-05-17T01:58:43.961Z,999.89
2019-05-17T01:59:26.611Z,999.87
2019-05-17T02:00:06.917Z,999.89
2019-05-17T02:00:50.043Z,999.87
2019-05-17T02:01:29.877Z,999.84
2019-05-17T02:02:16.294Z,999.79
2019-05-17T02:02:57.874Z,999.83
2019-05-17T02:14:16.504Z,999.69
2019-05-17T02:15:08.781Z,999.69
2019-05-17T02:15:59.616Z,999.7
2019-05-17T02:28:01.473Z,999.74
2019-05-17T02:28:41.480Z,999.7
2019-05-17T02:29:21.605Z,999.72
2019-05-17T02:30:05.003Z,999.73
2019-05-17T02:30:45.375Z,999.72
2019-05-17T02:31:27.753Z,999.74
2019-05-17T02:32:12.569Z,999.69
2019-05-17T02:32:49.431Z,999.7
2019-05-17T02:33:29.837Z,999.7
2019-05-17T02:34:13.861Z,999.7
2019-05-17T02:34:55.709Z,999.7
2019-05-17T02:46:03.588Z,999.64
2019-05-17T02:46:44.330Z,999.59
2019-05-17T02:47:26.592Z,999.58
2019-05-17T02:48:07.887Z,999.58
2019-05-17T02:48:53.557Z,999.58
2019-05-17T02:49:33.680Z,999.56
2019-05-17T02:50:14.611Z,999.57
2019-05-17T02:50:56.065Z,999.55
2019-05-17T02:51:39.462Z,999.58
2019-05-17T02:52:23.035Z,999.58
2019-05-17T02:53:04.948Z,999.54
2019-05-17T02:53:52.630Z,999.56
2019-05-17T02:54:33.081Z,999.57
2019-05-17T02:55:15.672Z,999.53
2019-05-17T02:55:56.048Z,999.58
2019-05-17T02:56:36.422Z,999.56
2019-05-17T02:57:18.439Z,999.59
2019-05-17T02:57:58.558Z,999.57
2019-05-17T02:58:44.501Z,999.57
2019-05-17T02:59:25.950Z,999.55
2019-05-17T03:00:06.349Z,999.54
2019-05-17T03:00:46.997Z,999.56
2019-05-17T03:01:27.148Z,999.53
2019-05-17T03:02:12.321Z,999.56
2019-05-17T03:02:48.615Z,999.57
2019-05-17T03:09:22.839Z,999.5
2019-05-17T03:12:53.073Z,999.51
2019-05-17T03:13:33.238Z,999.53
2019-05-17T03:14:13.417Z,999.5
2019-05-17T03:14:53.825Z,999.52
2019-05-17T03:15:34.182Z,999.52
2019-05-17T05:09:52.301Z,999.18
2019-05-17T05:10:33.903Z,999.17
2019-05-17T05:11:13.109Z,999.23
2019-05-17T05:12:00.960Z,999.17
2019-05-17T05:12:36.930Z,999.17
2019-05-17T05:13:17.212Z,999.16
2019-05-17T05:13:58.341Z,999.17
2019-05-17T05:14:38.759Z,999.2
2019-05-17T05:15:22.526Z,999.18
2019-05-17T05:16:02.928Z,999.17
2019-05-17T05:16:42.566Z,999.18
2019-05-17T05:17:22.792Z,999.16
2019-05-17T05:18:43.608Z,999.17
2019-05-17T05:19:24.069Z,999.18
2019-05-17T05:20:06.021Z,999.18
2019-05-17T05:20:46.417Z,999.15
2019-05-17T05:21:27.783Z,999.14
2019-05-17T05:22:08.209Z,999.17
2019-05-17T05:22:48.677Z,999.12
2019-05-17T05:23:29.028Z,999.18
2019-05-17T05:24:11.407Z,999.16
2019-05-17T05:24:52.342Z,999.13
2019-05-17T05:25:33.812Z,999.17
2019-05-17T05:26:14.650Z,999.14
2019-05-17T05:26:54.757Z,999.14
2019-05-17T05:27:36.248Z,999.14
2019-05-17T05:28:16.926Z,999.11
2019-05-17T05:35:22.426Z,999.16
2019-05-17T05:36:02.782Z,999.19
2019-05-17T05:36:44.125Z,999.15
2019-05-17T05:37:27.127Z,999.15
2019-05-17T05:38:07.528Z,999.16
2019-05-17T05:38:51.527Z,999.16
2019-05-17T05:39:31.926Z,999.12
2019-05-17T05:40:12.791Z,999.19
2019-05-17T05:40:54.227Z,999.2
2019-05-17T05:41:36.212Z,999.21
2019-05-17T05:42:16.725Z,999.17
2019-05-17T05:42:58.268Z,999.12
2019-05-17T05:43:38.747Z,999.13
2019-05-17T05:44:21.395Z,999.13
2019-05-17T05:44:59.537Z,999.11
2019-05-17T05:45:41.591Z,999.12
2019-05-17T05:46:22.350Z,999.11
2019-05-17T05:47:02.278Z,999.1
2019-05-17T05:47:42.314Z,999.1
2019-05-17T05:48:22.902Z,999.11
2019-05-17T05:49:03.376Z,999.15
2019-05-17T05:49:46.385Z,999.12
2019-05-17T05:50:26.117Z,999.08
2019-05-17T05:51:06.549Z,999.12
2019-05-17T05:51:52.293Z,999.1
2019-05-17T05:53:14.717Z,999.08
2019-05-17T05:53:55.063Z,999.12
2019-05-17T05:54:35.471Z,999.08
2019-05-17T05:55:16.675Z,999.08
2019-05-17T05:55:57.178Z,999.08
2019-05-17T05:56:37.582Z,999.13
2019-05-17T05:57:21.818Z,999.12
2019-05-17T05:58:02.952Z,999.09
2019-05-17T05:58:42.789Z,999.07
2019-05-17T05:59:22.697Z,999.07
2019-05-17T06:00:05.000Z,999.08
2019-05-17T06:00:45.343Z,999.05
2019-05-17T06:01:25.721Z,999.02
2019-05-17T06:02:06.143Z,999.06
2019-05-17T06:03:04.258Z,999.04
2019-05-17T06:03:44.098Z,999.08
2019-05-17T06:04:24.819Z,999.08
2019-05-17T06:08:19.163Z,999.03
2019-05-17T06:08:59.080Z,999.03
2019-05-17T06:09:42.334Z,999.06
2019-05-17T06:10:22.210Z,999.04
2019-05-17T06:11:02.485Z,999.02
2019-05-17T06:11:42.689Z,998.98
2019-05-17T06:12:27.747Z,999.01
2019-05-17T06:13:04.244Z,999.03
2019-05-17T06:13:44.570Z,998.99
2019-05-17T06:14:24.934Z,999.02
2019-05-17T06:15:05.373Z,999.02
2019-05-17T06:15:46.672Z,999.05
2019-05-17T06:16:32.085Z,999.01
2019-05-17T06:17:12.565Z,999.02
2019-05-17T06:17:51.984Z,999
2019-05-17T06:18:31.878Z,998.95
2019-05-17T06:19:12.015Z,998.97
2019-05-17T06:19:52.401Z,998.99
2019-05-17T06:20:32.871Z,998.98
2019-05-17T06:21:13.246Z,999
2019-05-17T06:21:53.717Z,998.98
2019-05-17T06:22:34.073Z,999
2019-05-17T06:23:14.466Z,998.98
2019-05-17T06:23:54.839Z,998.97
2019-05-17T06:24:36.992Z,999
2019-05-17T06:25:17.395Z,998.99
2019-05-17T06:26:47.986Z,998.98
2019-05-17T06:28:47.684Z,999.01
2019-05-17T06:29:28.003Z,998.99
2019-05-17T06:30:08.393Z,998.98
2019-05-17T06:30:52.108Z,998.98
2019-05-17T06:32:14.541Z,998.99
2019-05-17T06:32:55.819Z,998.95
2019-05-17T06:39:08.840Z,998.96
2019-05-17T06:39:49.280Z,998.97
2019-05-17T06:40:32.161Z,998.98
2019-05-17T06:41:12.590Z,998.95
2019-05-17T06:41:52.132Z,998.94
2019-05-17T06:42:40.241Z,998.94
2019-05-17T06:43:12.870Z,998.93
2019-05-17T06:45:12.878Z,998.93
2019-05-17T06:45:53.118Z,998.93
2019-05-17T06:46:33.550Z,998.95
2019-05-17T06:47:13.926Z,998.92
2019-05-17T06:47:54.345Z,998.91
2019-05-17T06:48:34.741Z,998.91
2019-05-17T06:49:15.137Z,998.93
2019-05-17T06:49:55.571Z,998.92
2019-05-17T06:50:35.960Z,998.92
2019-05-17T06:51:16.469Z,998.91
2019-05-17T06:51:56.841Z,998.93
2019-05-17T06:52:37.444Z,998.92
2019-05-17T06:53:18.845Z,998.91
2019-05-17T06:54:01.736Z,998.92
2019-05-17T06:54:41.820Z,998.91
2019-05-17T06:55:24.364Z,998.94
2019-05-17T06:56:07.160Z,998.93
2019-05-17T06:56:46.916Z,998.92
2019-05-17T06:57:27.305Z,998.92
2019-05-17T06:58:11.595Z,998.9
2019-05-17T06:58:49.758Z,998.92
2019-05-17T07:00:13.681Z,998.89
2019-05-17T07:00:51.016Z,998.92
2019-05-17T07:01:31.513Z,998.92
2019-05-17T07:02:13.718Z,998.93
2019-05-17T07:02:54.167Z,998.92
2019-05-17T07:03:34.619Z,998.9
2019-05-17T07:04:19.215Z,998.91
2019-05-17T07:04:57.574Z,998.92
2019-05-17T07:06:21.673Z,998.92
2019-05-17T07:07:03.908Z,998.89
2019-05-17T07:07:45.095Z,998.89
2019-05-17T07:08:26.481Z,998.87
2019-05-17T07:09:06.909Z,998.86
2019-05-17T07:09:49.531Z,998.88
2019-05-17T07:10:31.991Z,998.84
2019-05-17T07:11:12.360Z,998.89
2019-05-17T07:11:52.754Z,998.9
2019-05-17T07:12:34.067Z,998.84
2019-05-17T07:13:15.708Z,998.84
2019-05-17T07:13:59.716Z,998.89
2019-05-17T07:14:40.081Z,998.85
2019-05-17T07:16:39.759Z,998.8
2019-05-17T07:17:20.525Z,998.81
2019-05-17T07:18:02.293Z,998.84
2019-05-17T07:18:43.609Z,998.79
2019-05-17T07:19:24.041Z,998.81
2019-05-17T07:20:10.255Z,998.82
2019-05-17T07:20:50.769Z,998.77
2019-05-17T07:21:31.089Z,998.8
2019-05-17T07:22:11.621Z,998.85
2019-05-17T07:22:51.935Z,998.83
2019-05-17T07:23:32.846Z,998.81
2019-05-17T07:24:13.170Z,998.83
2019-05-17T07:24:55.718Z,998.83
2019-05-17T07:25:35.501Z,998.79
2019-05-17T07:26:16.628Z,998.81
2019-05-17T07:26:59.172Z,998.84
2019-05-17T07:28:19.964Z,998.83
2019-05-17T07:29:01.029Z,998.8
2019-05-17T07:29:41.872Z,998.82
2019-05-17T07:30:23.635Z,998.81
2019-05-17T07:31:03.943Z,998.8
2019-05-17T07:31:44.315Z,998.76
2019-05-17T07:32:25.464Z,998.77
2019-05-17T07:33:05.183Z,998.81
2019-05-17T07:33:45.618Z,998.77
2019-05-17T07:34:26.300Z,998.78
2019-05-17T07:35:11.097Z,998.79
2019-05-17T07:35:52.537Z,998.77
2019-05-17T07:36:33.758Z,998.77
2019-05-17T07:37:14.224Z,998.77
2019-05-17T07:37:54.647Z,998.77
2019-05-17T07:38:39.474Z,998.71
2019-05-17T07:39:20.405Z,998.72
2019-05-17T07:40:04.621Z,998.72
2019-05-17T07:40:40.255Z,998.77
2019-05-17T07:41:20.641Z,998.73
2019-05-17T07:42:01.249Z,998.77
2019-05-17T07:42:41.633Z,998.72
2019-05-17T07:43:22.070Z,998.73
2019-05-17T07:44:02.404Z,998.73
2019-05-17T07:44:44.722Z,998.72
2019-05-17T07:45:25.419Z,998.71
2019-05-17T07:46:05.634Z,998.79
2019-05-17T07:46:46.150Z,998.69
2019-05-17T07:47:26.457Z,998.7
2019-05-17T07:48:09.196Z,998.67
2019-05-17T07:48:49.713Z,998.7
2019-05-17T07:49:29.888Z,998.69
2019-05-17T07:50:11.133Z,998.68
2019-05-17T07:50:51.179Z,998.65
2019-05-17T07:54:15.909Z,998.64
2019-05-17T07:55:02.229Z,998.66
2019-05-17T07:55:39.801Z,998.59
2019-05-17T07:56:19.933Z,998.67
2019-05-17T07:57:00.211Z,998.62
2019-05-17T07:57:40.844Z,998.61
2019-05-17T07:58:22.380Z,998.64
2019-05-17T07:59:02.803Z,998.61
2019-05-17T07:59:43.766Z,998.57
2019-05-17T08:00:24.448Z,998.61
2019-05-17T08:01:06.313Z,998.6
2019-05-17T08:01:47.220Z,998.59
2019-05-17T08:02:30.762Z,998.58
2019-05-17T08:03:12.591Z,998.61
2019-05-17T08:03:51.798Z,998.58
2019-05-17T08:04:33.212Z,998.58
2019-05-17T08:05:13.680Z,998.59
2019-05-17T08:05:55.461Z,998.57
2019-05-17T08:06:40.273Z,998.55
2019-05-17T08:07:19.637Z,998.55
2019-05-17T08:08:00.001Z,998.51
2019-05-17T08:08:40.890Z,998.53
2019-05-17T08:09:20.438Z,998.5
2019-05-17T08:10:00.096Z,998.51
2019-05-17T08:10:41.626Z,998.5
2019-05-17T08:11:22.304Z,998.52
2019-05-17T08:12:03.102Z,998.55
2019-05-17T08:12:43.538Z,998.52
2019-05-17T08:13:29.774Z,998.51
2019-05-17T08:14:45.321Z,998.53
2019-05-17T08:15:25.633Z,998.53
2019-05-17T08:16:06.042Z,998.49
2019-05-17T08:17:27.318Z,998.47
2019-05-17T08:18:10.458Z,998.48
2019-05-17T08:18:49.652Z,998.44
2019-05-17T08:19:29.863Z,998.47
2019-05-17T08:20:10.015Z,998.43
2019-05-17T08:20:50.345Z,998.44
2019-05-17T08:21:30.603Z,998.45
2019-05-17T08:22:11.674Z,998.43
2019-05-17T08:22:52.865Z,998.46
2019-05-17T08:23:33.185Z,998.41
2019-05-17T08:24:13.195Z,998.44
2019-05-17T08:24:53.744Z,998.41
2019-05-17T08:25:34.119Z,998.42
2019-05-17T08:26:14.488Z,998.45
2019-05-17T08:26:54.989Z,998.47
2019-05-17T08:27:35.473Z,998.42
2019-05-17T08:28:15.911Z,998.39
2019-05-17T08:28:56.235Z,998.39
2019-05-17T08:29:36.706Z,998.38
2019-05-17T08:30:20.054Z,998.39
2019-05-17T08:31:00.967Z,998.39
2019-05-17T08:31:40.677Z,998.4
2019-05-17T08:32:21.070Z,998.39
2019-05-17T08:33:01.696Z,998.42
2019-05-17T08:33:44.650Z,998.37
2019-05-17T08:34:24.972Z,998.36
2019-05-17T08:35:05.357Z,998.36
2019-05-17T08:35:45.821Z,998.41
2019-05-17T08:36:29.634Z,998.39
2019-05-17T08:37:09.451Z,998.36
2019-05-17T08:37:49.866Z,998.39
2019-05-17T08:38:30.490Z,998.37
2019-05-17T08:39:10.957Z,998.37
2019-05-17T08:39:51.527Z,998.36
2019-05-17T08:40:32.115Z,998.38
2019-05-17T08:41:12.531Z,998.36
2019-05-17T08:41:54.651Z,998.34
2019-05-17T08:42:37.120Z,998.36
2019-05-17T08:43:21.276Z,998.34
2019-05-17T08:44:00.649Z,998.33
2019-05-17T08:44:40.346Z,998.34
2019-05-17T08:45:20.842Z,998.3
2019-05-17T08:46:01.860Z,998.3
2019-05-17T08:46:41.613Z,998.35
2019-05-17T08:47:22.663Z,998.31
2019-05-17T08:48:03.139Z,998.29
2019-05-17T08:48:43.631Z,998.31
2019-05-17T08:49:24.250Z,998.34
2019-05-17T08:50:04.700Z,998.32
2019-05-17T08:50:49.458Z,998.31
2019-05-17T08:51:30.290Z,998.3
2019-05-17T08:53:59.965Z,998.27
2019-05-17T08:54:42.618Z,998.25
2019-05-17T08:55:21.402Z,998.21
2019-05-17T08:56:01.944Z,998.18
2019-05-17T08:57:22.738Z,998.19
2019-05-17T08:58:03.370Z,998.21
2019-05-17T08:58:44.036Z,998.17
2019-05-17T08:59:24.552Z,998.19
2019-05-17T09:00:11.864Z,998.16
2019-05-17T09:00:52.221Z,998.15
2019-05-17T09:01:32.867Z,998.17
2019-05-17T09:02:13.297Z,998.13
2019-05-17T09:02:53.718Z,998.13
2019-05-17T09:03:36.396Z,998.17
2019-05-17T09:04:16.686Z,998.2
2019-05-17T09:05:41.633Z,998.17
2019-05-17T09:06:22.999Z,998.17
2019-05-17T09:07:04.041Z,998.17
2019-05-17T09:07:45.343Z,998.14
2019-05-17T09:08:29.820Z,998.13
2019-05-17T09:09:10.090Z,998.2
2019-05-17T09:09:52.166Z,998.16
2019-05-17T09:10:35.870Z,998.13
2019-05-17T09:11:16.467Z,998.13
2019-05-17T09:11:59.503Z,998.12
2019-05-17T09:12:40.530Z,998.1
2019-05-17T09:13:21.817Z,998.08
2019-05-17T09:14:02.799Z,998.09
2019-05-17T09:14:44.979Z,998.11
2019-05-17T09:15:29.511Z,998.1
2019-05-17T09:16:10.983Z,998.09
2019-05-17T09:16:52.811Z,998.07
2019-05-17T09:17:35.182Z,998.09
2019-05-17T09:18:16.082Z,998.06
2019-05-17T09:19:00.979Z,998.04
2019-05-17T09:19:42.153Z,998.04
2019-05-17T09:20:26.771Z,998
2019-05-17T09:21:09.683Z,998.03
2019-05-17T09:21:50.286Z,998
2019-05-17T09:22:32.959Z,997.99
2019-05-17T09:23:13.421Z,998
2019-05-17T09:23:54.380Z,998
2019-05-17T09:24:35.013Z,997.98
2019-05-17T09:25:18.979Z,997.98
2019-05-17T09:25:59.354Z,997.94
2019-05-17T09:26:56.449Z,997.94
2019-05-17T09:27:39.455Z,997.9
2019-05-17T09:28:17.557Z,997.93
2019-05-17T09:29:01.467Z,997.94
2019-05-17T09:29:42.089Z,997.92
2019-05-17T09:30:31.149Z,997.93
2019-05-17T09:31:10.525Z,997.96
2019-05-17T09:31:53.184Z,997.96
2019-05-17T09:32:34.498Z,997.96
2019-05-17T09:33:19.182Z,997.94
2019-05-17T09:34:01.234Z,997.93
2019-05-17T09:34:45.174Z,997.9
2019-05-17T09:35:30.002Z,997.92
2019-05-17T09:36:11.208Z,997.95
2019-05-17T09:36:53.194Z,997.93
2019-05-17T09:37:34.727Z,997.91
2019-05-17T09:38:15.057Z,997.87
2019-05-17T09:38:56.880Z,997.89
2019-05-17T09:39:37.253Z,997.93
2019-05-17T09:40:19.836Z,997.93
2019-05-17T09:40:59.892Z,997.91
2019-05-17T09:41:41.043Z,997.9
2019-05-17T09:42:21.430Z,997.94
2019-05-17T09:43:03.394Z,997.87
2019-05-17T09:43:43.901Z,997.92
2019-05-17T09:44:25.179Z,997.92
2019-05-17T09:45:05.596Z,997.94
2019-05-17T09:45:47.124Z,997.91
2019-05-17T09:46:30.056Z,997.91
2019-05-17T09:47:10.248Z,997.92
2019-05-17T09:47:50.781Z,997.99
2019-05-17T09:48:31.370Z,997.89
2019-05-17T09:49:13.376Z,997.93
2019-05-17T09:49:53.775Z,997.9
2019-05-17T09:51:16.666Z,997.89
2019-05-17T09:51:56.958Z,997.9
2019-05-17T09:52:41.247Z,997.92
2019-05-17T09:53:21.584Z,997.9
2019-05-17T09:54:03.742Z,997.85
2019-05-17T09:54:45.589Z,997.94
2019-05-17T09:55:25.680Z,997.92
2019-05-17T09:56:06.533Z,997.92
2019-05-17T09:56:49.620Z,997.93
2019-05-17T09:57:41.034Z,997.94
2019-05-17T09:58:24.789Z,997.9
2019-05-17T09:59:05.204Z,997.89
2019-05-17T09:59:45.664Z,997.9
2019-05-17T10:00:30.523Z,997.89
2019-05-17T10:01:16.695Z,997.91
2019-05-17T10:02:00.069Z,997.93
2019-05-17T10:02:45.788Z,997.92
2019-05-17T10:03:43.511Z,997.89
2019-05-17T10:04:30.402Z,997.85
2019-05-17T10:05:14.810Z,997.89
2019-05-17T10:05:55.542Z,997.87
2019-05-17T10:06:44.498Z,997.84
2019-05-17T10:07:29.802Z,997.87
2019-05-17T10:08:10.825Z,997.86
2019-05-17T10:08:52.372Z,997.84
2019-05-17T10:13:28.243Z,997.89
2019-05-17T10:14:23.590Z,997.86
2019-05-17T10:14:52.823Z,997.88
2019-05-17T10:15:33.506Z,997.88
2019-05-17T10:16:14.707Z,997.83
2019-05-17T10:17:00.291Z,997.84
2019-05-17T10:18:22.364Z,997.84
2019-05-17T10:19:02.823Z,997.81
2019-05-17T10:19:45.749Z,997.82
2019-05-17T10:20:26.237Z,997.77
2019-05-17T10:21:06.626Z,997.77
2019-05-17T10:21:47.032Z,997.78
2019-05-17T10:22:30.341Z,997.75
2019-05-17T10:23:10.393Z,997.76
2019-05-17T10:23:49.965Z,997.76
2019-05-17T10:24:37.813Z,997.78
2019-05-17T10:25:12.212Z,997.77
2019-05-17T10:25:52.611Z,997.73
2019-05-17T10:26:33.394Z,997.72
2019-05-17T10:27:19.495Z,997.77
2019-05-17T10:28:00.351Z,997.79
2019-05-17T10:28:39.971Z,997.77
2019-05-17T10:29:19.755Z,997.76
2019-05-17T11:07:50.959Z,997.69
2019-05-17T11:08:31.595Z,997.71
2019-05-17T11:09:11.949Z,997.73
2019-05-17T11:09:55.167Z,997.7
2019-05-17T11:10:38.939Z,997.68
2019-05-17T11:11:19.999Z,997.73
2019-05-17T11:11:57.989Z,997.74
2019-05-17T11:12:38.353Z,997.73
2019-05-17T11:13:18.714Z,997.74
2019-05-17T11:14:01.826Z,997.76
2019-05-17T11:14:50.617Z,997.77
2019-05-17T11:15:22.508Z,997.7
2019-05-17T11:16:07.040Z,997.7
2019-05-17T11:16:47.442Z,997.72
2019-05-17T11:17:27.834Z,997.71
2019-05-17T11:18:08.351Z,997.69
2019-05-17T11:18:48.792Z,997.71
2019-05-17T11:19:30.137Z,997.72
2019-05-17T11:20:10.490Z,997.7
2019-05-17T11:20:51.861Z,997.66
2019-05-17T11:21:41.643Z,997.71
2019-05-17T11:22:22.759Z,997.66
2019-05-17T11:23:04.728Z,997.71
2019-05-17T11:23:46.976Z,997.7
2019-05-17T11:24:44.715Z,997.71
2019-05-17T11:25:24.723Z,997.68
2019-05-17T11:26:46.871Z,997.66
2019-05-17T11:27:27.087Z,997.68
2019-05-17T11:28:08.396Z,997.65
2019-05-17T11:28:48.761Z,997.66
2019-05-17T11:29:30.256Z,997.66
2019-05-17T11:30:11.294Z,997.65
2019-05-17T11:30:51.735Z,997.67
2019-05-17T11:31:33.203Z,997.65
2019-05-17T11:32:14.329Z,997.68
2019-05-17T11:32:54.826Z,997.68
2019-05-17T11:33:35.727Z,997.68
2019-05-17T11:36:58.012Z,997.72
2019-05-17T11:37:38.116Z,997.69
2019-05-17T11:38:21.560Z,997.65
2019-05-17T11:39:04.128Z,997.68
2019-05-17T11:39:44.691Z,997.64
2019-05-17T11:40:25.053Z,997.69
2019-05-17T11:41:20.238Z,997.71
2019-05-17T11:41:46.911Z,997.7
2019-05-17T11:42:27.287Z,997.67
2019-05-17T11:43:08.771Z,997.7
2019-05-17T11:43:51.370Z,997.68
2019-05-17T11:44:33.581Z,997.68
2019-05-17T11:45:26.519Z,997.7
2019-05-17T11:45:54.395Z,997.71
2019-05-17T11:49:55.356Z,997.65
2019-05-17T11:50:35.921Z,997.67
2019-05-17T11:51:16.447Z,997.66
2019-05-17T11:51:57.010Z,997.68
2019-05-17T11:52:37.381Z,997.64
2019-05-17T11:53:18.259Z,997.66
2019-05-17T11:53:58.618Z,997.61
2019-05-17T11:54:39.255Z,997.62
2019-05-17T11:55:20.495Z,997.61
2019-05-17T11:56:01.095Z,997.59
2019-05-17T11:57:23.513Z,997.57
2019-05-17T11:58:03.884Z,997.59
2019-05-17T11:58:45.230Z,997.57
2019-05-17T11:59:25.643Z,997.49
2019-05-17T12:00:06.001Z,997.54
2019-05-17T12:00:46.369Z,997.52
2019-05-17T12:01:26.772Z,997.53
2019-05-17T12:02:07.189Z,997.52
2019-05-17T12:02:47.515Z,997.53
2019-05-17T12:03:27.910Z,997.54
2019-05-17T12:04:08.269Z,997.51
2019-05-17T12:04:48.655Z,997.48
2019-05-17T12:05:29.052Z,997.54
2019-05-17T12:06:09.414Z,997.51
2019-05-17T12:06:49.837Z,997.5
2019-05-17T12:07:30.404Z,997.51
2019-05-17T12:08:12.378Z,997.5
2019-05-17T12:08:52.803Z,997.51
2019-05-17T12:10:13.557Z,997.48
2019-05-17T12:10:54.163Z,997.51
2019-05-17T12:11:34.349Z,997.49
2019-05-17T12:12:14.788Z,997.48
2019-05-17T12:12:56.076Z,997.52
2019-05-17T12:13:36.508Z,997.52
2019-05-17T12:14:16.861Z,997.48
2019-05-17T12:14:59.086Z,997.51
2019-05-17T12:15:44.695Z,997.54
2019-05-17T12:16:19.874Z,997.48
2019-05-17T12:17:00.236Z,997.49
2019-05-17T12:17:42.473Z,997.48
2019-05-17T12:22:11.933Z,997.48
2019-05-17T12:23:15.470Z,997.53
2019-05-17T12:25:27.450Z,997.53
2019-05-17T12:26:29.713Z,997.61
2019-05-17T12:27:31.066Z,997.52
2019-05-17T12:28:27.484Z,997.61
2019-05-17T12:29:23.756Z,997.61
2019-05-17T12:30:22.449Z,997.57
2019-05-17T12:31:21.124Z,997.6
2019-05-17T12:32:20.728Z,997.6
2019-05-17T12:33:26.232Z,997.62
2019-05-17T12:34:22.646Z,997.61
2019-05-17T12:35:37.135Z,997.59
2019-05-17T12:44:55.321Z,997.54
2019-05-17T12:45:35.817Z,997.53
2019-05-17T12:46:16.455Z,997.48
2019-05-17T12:46:56.857Z,997.55
2019-05-17T12:47:37.332Z,997.53
2019-05-17T12:48:17.702Z,997.5
2019-05-17T12:48:58.084Z,997.53
2019-05-17T12:49:38.541Z,997.54
2019-05-17T12:53:05.527Z,997.49
2019-05-17T12:54:01.415Z,997.47
2019-05-17T12:54:54.213Z,997.47
2019-05-17T12:55:51.025Z,997.44
2019-05-17T12:56:47.361Z,997.47
2019-05-17T12:57:40.426Z,997.49
2019-05-17T12:58:33.306Z,997.46
2019-05-17T12:59:37.002Z,997.49
2019-05-17T13:00:33.766Z,997.46
2019-05-17T13:09:45.003Z,997.44
2019-05-17T13:10:28.064Z,997.47
2019-05-17T13:11:08.551Z,997.48
2019-05-17T13:11:48.844Z,997.46
2019-05-17T13:12:29.219Z,997.48
2019-05-17T13:13:09.890Z,997.48
2019-05-17T13:13:50.283Z,997.46
2019-05-17T13:14:33.745Z,997.48
2019-05-17T13:15:14.008Z,997.44
2019-05-17T13:15:55.395Z,997.42
2019-05-17T13:16:36.091Z,997.45
2019-05-17T13:17:16.609Z,997.44
2019-05-17T13:17:57.227Z,997.43
2019-05-17T13:18:37.842Z,997.46
2019-05-17T13:19:18.197Z,997.45
2019-05-17T13:19:58.653Z,997.39
2019-05-17T13:20:39.011Z,997.4
2019-05-17T13:21:19.416Z,997.42
2019-05-17T13:21:59.794Z,997.43
2019-05-17T13:22:40.199Z,997.43
2019-05-17T13:23:21.557Z,997.48
2019-05-17T13:24:01.999Z,997.47
2019-05-17T13:24:43.088Z,997.44
2019-05-17T13:25:25.158Z,997.45
2019-05-17T13:26:07.462Z,997.47
2019-05-17T13:26:47.863Z,997.44
2019-05-17T13:28:10.598Z,997.44
2019-05-17T13:28:50.989Z,997.45
2019-05-17T13:29:31.506Z,997.45
2019-05-17T13:30:12.187Z,997.44
2019-05-17T13:30:52.564Z,997.47
2019-05-17T13:31:32.941Z,997.45
2019-05-17T13:32:13.362Z,997.46
2019-05-17T13:32:53.745Z,997.47
2019-05-17T13:34:15.814Z,997.44
2019-05-17T13:34:56.233Z,997.43
2019-05-17T13:35:38.566Z,997.42
2019-05-17T13:36:19.020Z,997.44
2019-05-17T13:36:59.361Z,997.42
2019-05-17T13:37:39.742Z,997.44
2019-05-17T13:38:20.146Z,997.39
2019-05-17T13:39:00.559Z,997.4
2019-05-17T13:39:40.916Z,997.4
2019-05-17T13:40:21.547Z,997.41
2019-05-17T13:41:01.920Z,997.38
2019-05-17T13:41:42.610Z,997.41
2019-05-17T13:42:23.978Z,997.39
2019-05-17T13:43:04.363Z,997.37
2019-05-17T13:43:44.793Z,997.35
2019-05-17T13:44:25.561Z,997.32
2019-05-17T13:45:05.973Z,997.35
2019-05-17T13:45:46.404Z,997.31
2019-05-17T13:46:32.989Z,997.29
2019-05-17T13:47:07.289Z,997.28
2019-05-17T13:47:47.673Z,997.26
2019-05-17T13:48:28.050Z,997.28
2019-05-17T13:49:08.512Z,997.25
2019-05-17T13:49:48.870Z,997.25
2019-05-17T13:50:29.207Z,997.25
2019-05-17T13:51:10.653Z,997.24
2019-05-17T13:51:50.959Z,997.26
2019-05-17T13:52:31.385Z,997.21
2019-05-17T13:53:12.149Z,997.25
2019-05-17T13:53:52.667Z,997.26
2019-05-17T13:54:33.049Z,997.28
2019-05-17T13:55:13.467Z,997.23
2019-05-17T13:55:53.987Z,997.24
2019-05-17T13:56:34.278Z,997.19
2019-05-17T13:57:16.240Z,997.24
2019-05-17T13:57:57.955Z,997.15
2019-05-17T13:58:38.330Z,997.18
2019-05-17T13:59:19.334Z,997.11
2019-05-17T14:00:00.637Z,997.12
2019-05-17T14:00:42.899Z,997.08
2019-05-17T14:01:23.282Z,997.09
2019-05-17T14:02:44.057Z,997.08
2019-05-17T14:03:24.441Z,997.08
2019-05-17T14:04:04.805Z,997.07
2019-05-17T14:04:45.250Z,997.06
2019-05-17T14:05:25.625Z,997.08
2019-05-17T14:06:06.020Z,997.06
2019-05-17T14:06:46.627Z,997.08
2019-05-17T14:07:27.036Z,997.08
2019-05-17T14:08:07.424Z,997.11
2019-05-17T14:08:47.834Z,997.13
2019-05-17T14:09:28.214Z,997.13